createdAt,value
2022-11-24T00:00:36.075Z,93.20
2022-11-24T00:03:09.402Z,91.24
2022-11-24T00:05:43.294Z,91.83
2022-11-24T00:08:15.694Z,94.23
2022-11-24T00:10:48.240Z,100.00
2022-11-24T00:13:21.134Z,95.16
2022-11-24T00:15:51.496Z,93.22
2022-11-24T00:18:21.655Z,96.04
2022-11-24T00:20:55.159Z,94.48
2022-11-24T00:23:32.140Z,93.94
2022-11-24T00:26:10.180Z,95.28
2022-11-24T00:28:42.235Z,90.64
2022-11-24T00:31:21.062Z,90.68
2022-11-24T00:33:55.895Z,90.37
2022-11-24T00:36:27.394Z,90.45
2022-11-24T00:39:02.704Z,97.42
2022-11-24T00:41:33.193Z,94.52
2022-11-24T00:44:04.478Z,90.34
2022-11-24T00:46:34.836Z,94.87
2022-11-24T00:49:04.975Z,96.44
2022-11-24T00:51:35.197Z,94.66
2022-11-24T00:54:06.660Z,97.30
2022-11-24T00:56:37.495Z,91.22
2022-11-24T00:59:16.980Z,91.06
2022-11-24T01:01:49.323Z,91.24
2022-11-24T01:04:19.434Z,87.70
2022-11-24T01:06:52.434Z,91.19
2022-11-24T01:09:25.274Z,93.78
2022-11-24T01:12:10.295Z,91.94
2022-11-24T01:14:40.875Z,92.06
2022-11-24T01:17:10.934Z,97.22
2022-11-24T01:19:41.455Z,96.19
2022-11-24T01:22:11.416Z,95.13
2022-11-24T01:24:49.694Z,97.47
2022-11-24T01:27:23.040Z,98.33
2022-11-24T01:29:53.535Z,95.34
2022-11-24T01:32:24.740Z,92.64
2022-11-24T01:34:59.337Z,93.66
2022-11-24T01:37:31.015Z,94.00
2022-11-24T01:40:02.619Z,88.82
2022-11-24T01:42:45.720Z,91.62
2022-11-24T01:45:43.774Z,93.72
2022-11-24T01:48:19.092Z,99.31
2022-11-24T01:51:00.675Z,93.38
2022-11-24T01:53:32.016Z,96.10
2022-11-24T01:56:04.839Z,94.67
2022-11-24T01:58:35.575Z,92.22
2022-11-24T02:01:05.804Z,98.49
2022-11-24T02:03:40.128Z,92.94
2022-11-24T02:06:14.436Z,96.45
2022-11-24T02:08:47.640Z,96.06
2022-11-24T02:11:20.574Z,97.58
2022-11-24T02:13:54.198Z,92.42
2022-11-24T02:16:24.347Z,100.00
2022-11-24T02:18:55.324Z,100.00
2022-11-24T02:21:25.880Z,97.52
2022-11-24T02:24:01.794Z,99.42
2022-11-24T02:26:40.469Z,97.33
2022-11-24T02:29:14.556Z,92.03
2022-11-24T02:31:49.453Z,90.55
2022-11-24T02:34:23.299Z,94.03
2022-11-24T02:36:54.959Z,98.74
2022-11-24T02:39:32.924Z,92.54
2022-11-24T02:42:20.026Z,100.00
2022-11-24T02:44:54.439Z,95.31
2022-11-24T02:47:24.414Z,91.40
2022-11-24T02:49:57.820Z,92.69
2022-11-24T02:52:30.249Z,94.49
2022-11-24T02:55:03.214Z,96.79
2022-11-24T02:57:38.104Z,96.92
2022-11-24T03:00:09.694Z,94.75
2022-11-24T03:02:40.760Z,92.08
2022-11-24T03:05:12.180Z,99.18
2022-11-24T03:07:43.250Z,93.20
2022-11-24T03:10:13.775Z,98.88
2022-11-24T03:12:46.594Z,95.50
2022-11-24T03:15:16.734Z,96.45
2022-11-24T03:17:48.515Z,100.00
2022-11-24T03:20:19.554Z,95.10
2022-11-24T03:22:50.670Z,91.59
2022-11-24T03:25:20.606Z,98.58
2022-11-24T03:27:54.355Z,95.60
2022-11-24T03:30:24.190Z,98.27
2022-11-24T03:32:56.575Z,93.06
2022-11-24T03:35:28.357Z,90.08
2022-11-24T03:37:58.601Z,92.70
2022-11-24T03:40:31.656Z,91.48
2022-11-24T03:43:03.215Z,91.51
2022-11-24T03:45:46.011Z,93.07
2022-11-24T03:48:16.996Z,97.21
2022-11-24T03:50:55.300Z,95.39
2022-11-24T03:53:30.835Z,98.76
2022-11-24T03:56:04.505Z,96.39
2022-11-24T03:58:36.656Z,99.14
2022-11-24T04:01:06.275Z,98.47
2022-11-24T04:03:39.177Z,94.56
2022-11-24T04:06:09.537Z,95.66
2022-11-24T04:08:42.256Z,96.16
2022-11-24T04:11:32.975Z,92.74
2022-11-24T04:14:07.917Z,90.01
2022-11-24T04:16:45.922Z,90.79
2022-11-24T04:19:16.415Z,91.85
2022-11-24T04:21:46.416Z,92.52
2022-11-24T04:24:16.579Z,92.63
2022-11-24T04:26:46.199Z,90.11
2022-11-24T04:29:20.897Z,93.73
2022-11-24T04:31:51.833Z,92.19
2022-11-24T04:34:24.827Z,90.05
2022-11-24T04:36:57.876Z,95.17
2022-11-24T04:39:28.818Z,97.85
2022-11-24T04:42:00.418Z,96.18
2022-11-24T04:44:32.710Z,100.00
2022-11-24T04:47:05.275Z,95.54
2022-11-24T04:49:37.076Z,91.56
2022-11-24T04:52:07.155Z,97.18
2022-11-24T04:54:37.220Z,93.53
2022-11-24T04:57:07.696Z,93.34
2022-11-24T04:59:39.351Z,95.11
2022-11-24T05:02:10.507Z,94.99
2022-11-24T05:04:40.374Z,96.94
2022-11-24T05:07:18.052Z,93.36
2022-11-24T05:10:06.797Z,94.95
2022-11-24T05:12:36.555Z,93.60
2022-11-24T05:15:09.139Z,92.76
2022-11-24T05:17:40.690Z,96.91
2022-11-24T05:20:11.081Z,97.60
2022-11-24T05:22:40.841Z,93.17
2022-11-24T05:25:11.207Z,90.01
2022-11-24T05:27:56.817Z,90.95
2022-11-24T05:30:31.482Z,90.68
2022-11-24T05:33:08.471Z,89.66
2022-11-24T05:35:40.732Z,90.93
2022-11-24T05:38:12.537Z,91.02
2022-11-24T05:40:43.622Z,90.30
2022-11-24T05:43:17.856Z,92.43
2022-11-24T05:45:50.382Z,98.38
2022-11-24T05:48:21.057Z,89.94
2022-11-24T05:50:56.020Z,91.22
2022-11-24T05:53:27.225Z,88.28
2022-11-24T05:55:57.237Z,89.82
2022-11-24T05:58:31.495Z,92.52
2022-11-24T06:01:02.916Z,96.00
2022-11-24T06:03:32.757Z,92.92
2022-11-24T06:06:04.627Z,93.64
2022-11-24T06:08:36.377Z,91.70
2022-11-24T06:11:19.257Z,97.65
2022-11-24T06:13:50.299Z,91.22
2022-11-24T06:16:22.200Z,88.32
2022-11-24T06:18:52.555Z,87.66
2022-11-24T06:21:22.592Z,90.26
2022-11-24T06:23:56.010Z,88.55
2022-11-24T06:26:30.879Z,88.96
2022-11-24T06:29:00.722Z,85.97
2022-11-24T06:31:33.333Z,92.83
2022-11-24T06:34:03.926Z,91.67
2022-11-24T06:36:36.260Z,93.54
2022-11-24T06:39:08.965Z,92.11
2022-11-24T06:41:39.327Z,89.80
2022-11-24T06:44:09.674Z,90.62
2022-11-24T06:46:41.215Z,88.18
2022-11-24T06:49:12.814Z,100.00
2022-11-24T06:51:45.021Z,95.51
2022-11-24T06:54:22.779Z,95.74
2022-11-24T06:56:59.740Z,88.81
2022-11-24T06:59:33.710Z,89.08
2022-11-24T07:02:07.519Z,95.00
2022-11-24T07:04:39.035Z,90.02
2022-11-24T07:07:10.443Z,95.17
2022-11-24T07:09:42.410Z,91.02
2022-11-24T07:12:13.514Z,95.95
2022-11-24T07:14:43.675Z,89.42
2022-11-24T07:17:15.960Z,91.45
2022-11-24T07:19:46.255Z,93.09
2022-11-24T07:22:16.075Z,94.50
2022-11-24T07:24:47.365Z,91.41
2022-11-24T07:27:17.676Z,91.84
2022-11-24T07:29:47.590Z,95.05
2022-11-24T07:32:19.336Z,90.83
2022-11-24T07:34:51.311Z,92.65
2022-11-24T07:37:26.701Z,89.40
2022-11-24T07:39:59.995Z,87.32
2022-11-24T07:42:30.285Z,90.22
2022-11-24T07:45:00.235Z,89.80
2022-11-24T07:47:32.716Z,88.87
2022-11-24T07:50:04.665Z,90.51
2022-11-24T07:52:36.466Z,88.38
2022-11-24T07:55:10.088Z,100.00
2022-11-24T07:57:41.456Z,99.35
2022-11-24T08:00:13.844Z,96.46
2022-11-24T08:02:45.997Z,93.56
2022-11-24T08:05:16.375Z,91.04
2022-11-24T08:07:47.315Z,88.56
2022-11-24T08:10:18.396Z,96.38
2022-11-24T08:12:48.379Z,91.21
2022-11-24T08:15:18.335Z,91.11
2022-11-24T08:17:49.916Z,94.28
2022-11-24T08:20:22.121Z,91.05
2022-11-24T08:22:52.155Z,92.84
2022-11-24T08:25:24.759Z,92.31
2022-11-24T08:27:55.869Z,96.36
2022-11-24T08:30:29.371Z,90.21
2022-11-24T08:33:02.791Z,89.30
2022-11-24T08:35:33.355Z,92.64
2022-11-24T08:38:04.754Z,89.96
2022-11-24T08:40:35.326Z,91.11
2022-11-24T08:43:06.417Z,92.88
2022-11-24T08:45:41.424Z,90.26
2022-11-24T08:48:13.440Z,90.33
2022-11-24T08:50:44.815Z,91.52
2022-11-24T08:53:14.961Z,89.57
2022-11-24T08:55:45.096Z,98.76
2022-11-24T08:58:15.280Z,97.01
2022-11-24T09:00:47.401Z,93.35
2022-11-24T09:03:19.436Z,93.06
2022-11-24T09:05:52.127Z,91.93
2022-11-24T09:08:23.916Z,90.02
2022-11-24T09:10:54.900Z,95.00
2022-11-24T09:13:25.054Z,92.09
2022-11-24T09:15:55.116Z,96.10
2022-11-24T09:18:30.287Z,96.87
2022-11-24T09:21:09.376Z,97.86
2022-11-24T09:23:41.621Z,93.79
2022-11-24T09:26:15.176Z,95.96
2022-11-24T09:28:46.160Z,96.58
2022-11-24T09:31:18.680Z,94.37
2022-11-24T09:33:50.765Z,98.11
2022-11-24T09:36:21.935Z,94.29
2022-11-24T09:38:52.097Z,97.65
2022-11-24T09:41:51.195Z,97.15
2022-11-24T09:44:54.856Z,93.39
2022-11-24T09:47:39.375Z,94.84
2022-11-24T09:50:15.915Z,97.66
2022-11-24T09:52:51.400Z,97.14
2022-11-24T09:55:31.934Z,98.10
2022-11-24T09:58:17.415Z,93.37
2022-11-24T10:00:48.776Z,92.74
2022-11-24T10:03:30.257Z,95.55
2022-11-24T10:06:02.635Z,99.11
2022-11-24T10:08:49.721Z,98.04
2022-11-24T10:11:27.616Z,100.00
2022-11-24T10:14:24.096Z,100.00
2022-11-24T10:16:58.176Z,98.42
2022-11-24T10:19:40.593Z,100.00
2022-11-24T10:22:34.475Z,97.47
2022-11-24T10:25:10.778Z,98.34
2022-11-24T10:27:43.519Z,96.83
2022-11-24T10:30:17.684Z,99.74
2022-11-24T10:32:49.897Z,100.00
2022-11-24T10:35:22.875Z,97.58
2022-11-24T10:38:03.716Z,91.82
2022-11-24T10:43:29.935Z,92.00
2022-11-24T10:46:07.126Z,84.87
2022-11-24T10:48:42.418Z,92.01
2022-11-24T10:51:34.604Z,86.04
2022-11-24T10:54:12.396Z,90.55
2022-11-24T10:56:43.115Z,92.38
2022-11-24T10:59:36.612Z,90.61
2022-11-24T11:02:36.968Z,90.85
2022-11-24T11:05:30.821Z,81.53
2022-11-24T11:08:29.377Z,85.73
2022-11-24T11:11:23.990Z,87.02
2022-11-24T11:14:05.494Z,84.58
2022-11-24T11:16:37.618Z,82.36
2022-11-24T11:19:48.382Z,88.34
2022-11-24T11:22:29.031Z,82.88
2022-11-24T11:25:19.697Z,82.51
2022-11-24T11:27:52.125Z,80.82
2022-11-24T11:36:20.494Z,74.12
2022-11-24T11:38:52.237Z,75.51
2022-11-24T11:41:26.156Z,73.54
2022-11-24T11:44:06.955Z,81.57
2022-11-24T11:46:37.850Z,78.76
2022-11-24T11:49:10.175Z,78.74
2022-11-24T11:51:50.496Z,79.34
2022-11-24T11:54:28.300Z,80.34
2022-11-24T11:57:06.045Z,78.89
2022-11-24T12:00:03.415Z,79.37
2022-11-24T12:03:20.280Z,76.62
2022-11-24T12:05:55.775Z,76.36
2022-11-24T12:08:56.004Z,77.38
2022-11-24T12:11:29.919Z,80.90
2022-11-24T12:14:33.134Z,79.45
2022-11-24T12:17:12.260Z,81.31
2022-11-24T12:20:00.575Z,80.37
2022-11-24T12:22:37.296Z,81.20
2022-11-24T12:25:20.715Z,84.77
2022-11-24T12:28:00.615Z,74.30
2022-11-24T12:30:39.815Z,75.29
2022-11-24T12:33:37.534Z,71.80
2022-11-24T12:36:14.874Z,83.05
2022-11-24T12:38:54.795Z,76.87
2022-11-24T12:41:42.194Z,77.07
2022-11-24T12:44:23.376Z,73.23
2022-11-24T12:46:58.855Z,76.63
2022-11-24T12:49:35.848Z,77.36
2022-11-24T12:52:13.094Z,71.92
2022-11-24T12:54:43.497Z,74.43
2022-11-24T12:57:16.645Z,69.93
2022-11-24T12:59:50.795Z,63.98
2022-11-24T13:02:28.036Z,70.85
2022-11-24T13:05:06.075Z,73.15
2022-11-24T13:07:44.429Z,71.85
2022-11-24T13:10:55.877Z,69.14
2022-11-24T13:13:28.039Z,73.28
2022-11-24T13:19:11.359Z,72.91
2022-11-24T13:22:20.660Z,72.94
2022-11-24T13:25:15.919Z,73.39
2022-11-24T13:27:48.418Z,77.59
2022-11-24T13:30:53.305Z,77.54
2022-11-24T13:33:42.168Z,72.09
2022-11-24T13:36:34.401Z,74.66
2022-11-24T13:39:06.480Z,78.38
2022-11-24T13:42:42.579Z,73.52
2022-11-24T13:45:04.924Z,74.90
2022-11-24T13:47:38.934Z,77.32
2022-11-24T13:50:25.194Z,78.74
2022-11-24T13:53:02.079Z,71.58
2022-11-24T13:55:35.515Z,71.39
2022-11-24T13:58:28.762Z,71.30
2022-11-24T14:01:21.513Z,68.76
2022-11-24T14:07:07.417Z,68.17
2022-11-24T14:09:43.704Z,75.49
2022-11-24T14:12:18.474Z,77.82
2022-11-24T14:14:51.383Z,81.04
2022-11-24T14:17:25.035Z,82.02
2022-11-24T14:19:56.420Z,85.11
2022-11-24T14:22:28.155Z,84.83
2022-11-24T14:24:59.520Z,85.80
2022-11-24T14:27:32.316Z,84.73
2022-11-24T14:30:06.395Z,86.19
2022-11-24T14:32:38.075Z,88.07
2022-11-24T14:35:25.010Z,88.94
2022-11-24T14:37:55.195Z,90.76
2022-11-24T14:40:43.201Z,90.44
2022-11-24T14:43:24.534Z,91.92
2022-11-24T14:46:05.303Z,91.63
2022-11-24T14:48:40.017Z,92.48
2022-11-24T14:51:14.764Z,91.38
2022-11-24T14:53:45.936Z,90.75
2022-11-24T14:56:28.264Z,93.44
2022-11-24T14:58:59.624Z,91.59
2022-11-24T15:01:36.425Z,91.56
2022-11-24T15:04:39.037Z,92.17
2022-11-24T15:07:26.243Z,93.58
2022-11-24T15:09:58.898Z,94.86
2022-11-24T15:12:31.788Z,95.63
2022-11-24T15:15:04.840Z,95.60
2022-11-24T15:17:37.145Z,95.01
2022-11-24T15:20:18.149Z,91.96
2022-11-24T15:22:53.225Z,94.54
2022-11-24T15:28:53.570Z,92.78
2022-11-24T15:31:23.922Z,96.02
2022-11-24T15:33:55.776Z,90.17
2022-11-24T15:36:26.745Z,90.36
2022-11-24T15:38:57.076Z,90.55
2022-11-24T15:41:32.114Z,93.93
2022-11-24T15:44:02.757Z,91.46
2022-11-24T15:46:38.415Z,93.71
2022-11-24T15:49:10.854Z,91.29
2022-11-24T15:51:47.395Z,93.10
2022-11-24T15:54:18.534Z,92.95
2022-11-24T15:56:48.836Z,93.62
2022-11-24T15:59:21.271Z,90.53
2022-11-24T16:01:52.825Z,92.55
2022-11-24T16:04:24.174Z,93.65
2022-11-24T16:06:55.915Z,93.67
2022-11-24T16:09:26.474Z,90.66
2022-11-24T16:11:57.482Z,92.92
2022-11-24T16:14:27.690Z,93.99
2022-11-24T16:16:57.972Z,92.42
2022-11-24T16:19:29.217Z,94.06
2022-11-24T16:21:59.276Z,92.99
2022-11-24T16:24:29.240Z,93.49
2022-11-24T16:26:59.299Z,95.23
2022-11-24T16:29:31.824Z,92.36
2022-11-24T16:32:03.672Z,92.91
2022-11-24T16:34:41.836Z,93.46
2022-11-24T16:37:11.554Z,96.36
2022-11-24T16:40:08.365Z,93.41
2022-11-24T16:42:39.545Z,90.49
2022-11-24T16:45:15.596Z,89.11
2022-11-24T16:47:46.024Z,90.88
2022-11-24T16:50:18.046Z,94.92
2022-11-24T16:52:47.856Z,93.31
2022-11-24T16:55:19.796Z,90.51
2022-11-24T16:57:49.476Z,92.46
2022-11-24T17:00:20.095Z,92.05
2022-11-24T17:02:49.821Z,94.39
2022-11-24T17:05:21.315Z,93.80
2022-11-24T17:07:51.132Z,92.15
2022-11-24T17:10:21.476Z,95.81
2022-11-24T17:12:51.376Z,95.09
2022-11-24T17:15:33.637Z,94.25
2022-11-24T17:21:07.800Z,91.49
2022-11-24T17:23:41.296Z,93.43
2022-11-24T17:26:14.210Z,93.07
2022-11-24T17:28:45.517Z,91.79
2022-11-24T17:31:19.466Z,93.50
2022-11-24T17:36:36.956Z,92.40
2022-11-24T17:39:08.355Z,90.23
2022-11-24T17:41:44.658Z,92.83
2022-11-24T17:44:19.535Z,92.54
2022-11-24T17:46:49.057Z,95.07
2022-11-24T17:49:21.935Z,93.66
2022-11-24T17:51:55.708Z,91.23
2022-11-24T17:57:15.905Z,93.62
2022-11-24T17:59:46.836Z,91.76
2022-11-24T18:02:16.637Z,91.11
2022-11-24T18:04:46.623Z,92.14
2022-11-24T18:07:20.437Z,90.82
2022-11-24T18:09:50.418Z,96.86
2022-11-24T18:12:21.075Z,93.00
2022-11-24T18:14:51.085Z,90.74
2022-11-24T18:17:21.555Z,90.62
2022-11-24T18:19:51.441Z,93.05
2022-11-24T18:22:42.839Z,97.79
2022-11-24T18:25:13.333Z,92.96
2022-11-24T18:27:44.060Z,89.34
2022-11-24T18:30:14.717Z,90.90
2022-11-24T18:32:44.756Z,92.29
2022-11-24T18:35:14.381Z,93.13
2022-11-24T18:37:49.049Z,92.89
2022-11-24T18:40:21.467Z,90.64
2022-11-24T18:42:51.214Z,93.23
2022-11-24T18:45:25.758Z,91.95
2022-11-24T18:48:01.013Z,92.25
2022-11-24T18:50:38.390Z,89.21
2022-11-24T18:53:10.175Z,90.28
2022-11-24T18:55:41.584Z,90.58
2022-11-24T18:58:13.320Z,92.75
2022-11-24T19:00:45.362Z,88.53
2022-11-24T19:03:23.961Z,87.78
2022-11-24T19:05:54.945Z,89.16
2022-11-24T19:08:28.205Z,91.71
2022-11-24T19:10:59.636Z,93.45
2022-11-24T19:13:30.585Z,88.83
2022-11-24T19:16:02.400Z,91.60
2022-11-24T19:18:40.515Z,89.77
2022-11-24T19:21:12.805Z,88.84
2022-11-24T19:23:47.925Z,88.91
2022-11-24T19:26:18.288Z,91.55
2022-11-24T19:28:55.536Z,89.06
2022-11-24T19:31:36.660Z,95.86
2022-11-24T19:34:09.665Z,93.91
2022-11-24T19:36:46.140Z,91.86
2022-11-24T19:39:24.603Z,93.95
2022-11-24T19:42:00.741Z,88.85
2022-11-24T19:44:36.208Z,91.88
2022-11-24T19:47:12.527Z,89.02
2022-11-24T19:49:48.235Z,90.53
2022-11-24T19:52:22.866Z,87.46
2022-11-24T19:55:00.204Z,87.02
2022-11-24T19:57:42.944Z,89.83
2022-11-24T20:00:32.061Z,88.68
2022-11-24T20:03:05.547Z,91.75
2022-11-24T20:05:42.780Z,88.93
2022-11-24T20:08:14.766Z,90.00
2022-11-24T20:10:59.090Z,87.77
2022-11-24T20:13:32.251Z,87.03
2022-11-24T20:16:12.173Z,92.12
2022-11-24T20:18:45.376Z,91.32
2022-11-24T20:21:20.328Z,96.01
2022-11-24T20:23:57.500Z,86.02
2022-11-24T20:26:58.443Z,88.71
2022-11-24T20:29:36.044Z,84.06
2022-11-24T20:32:09.925Z,88.02
2022-11-24T20:34:40.205Z,89.34
2022-11-24T20:37:23.301Z,87.19
2022-11-24T20:40:13.230Z,84.95
2022-11-24T20:42:51.940Z,87.92
2022-11-24T20:45:25.431Z,89.37
2022-11-24T20:47:59.216Z,86.23
2022-11-24T20:50:30.516Z,83.86
2022-11-24T20:53:01.230Z,89.50
2022-11-24T20:55:34.119Z,84.07
2022-11-24T20:58:07.426Z,86.21
2022-11-24T21:00:38.686Z,88.77
2022-11-24T21:03:08.678Z,85.85
2022-11-24T21:05:39.199Z,85.44
2022-11-24T21:08:09.411Z,86.05
2022-11-24T21:10:40.032Z,84.51
2022-11-24T21:13:12.350Z,85.22
2022-11-24T21:15:44.185Z,89.50
2022-11-24T21:18:14.418Z,85.60
2022-11-24T21:20:45.341Z,87.82
2022-11-24T21:23:16.662Z,89.64
2022-11-24T21:25:46.785Z,86.04
2022-11-24T21:28:18.610Z,85.49
2022-11-24T21:30:50.060Z,85.03
2022-11-24T21:33:20.496Z,88.76
2022-11-24T21:35:50.666Z,87.66
2022-11-24T21:38:21.481Z,85.86
2022-11-24T21:40:51.599Z,86.46
2022-11-24T21:43:22.885Z,85.14
2022-11-24T21:45:54.161Z,86.82
2022-11-24T21:48:24.140Z,84.25
2022-11-24T21:50:54.060Z,84.76
2022-11-24T21:53:24.372Z,85.50
2022-11-24T21:55:57.245Z,83.29
2022-11-24T21:58:29.545Z,84.02
2022-11-24T22:01:07.251Z,87.30
2022-11-24T22:03:42.352Z,86.08
2022-11-24T22:06:12.276Z,85.37
2022-11-24T22:08:43.420Z,85.43
2022-11-24T22:11:15.090Z,83.25
2022-11-24T22:13:48.660Z,84.53
2022-11-24T22:16:19.752Z,84.10
2022-11-24T22:18:50.099Z,83.35
2022-11-24T22:21:22.966Z,84.23
2022-11-24T22:23:53.556Z,81.30
2022-11-24T22:26:26.310Z,84.28
2022-11-24T22:28:59.341Z,87.83
2022-11-24T22:31:35.617Z,88.30
2022-11-24T22:34:05.820Z,84.36
2022-11-24T22:36:36.834Z,87.36
2022-11-24T22:39:07.420Z,84.55
2022-11-24T22:41:38.120Z,86.29
2022-11-24T22:44:10.595Z,82.19
2022-11-24T22:46:40.678Z,83.26
2022-11-24T22:49:12.299Z,83.56
2022-11-24T22:51:44.556Z,82.34
2022-11-24T22:54:15.139Z,80.60
2022-11-24T22:56:45.075Z,84.33
2022-11-24T22:59:18.195Z,83.34
2022-11-24T23:01:47.580Z,83.16
2022-11-24T23:04:18.711Z,84.97
2022-11-24T23:06:49.075Z,78.62
2022-11-24T23:09:18.357Z,84.56
2022-11-24T23:11:49.695Z,87.51
2022-11-24T23:14:22.475Z,82.07
2022-11-24T23:16:52.917Z,83.49
2022-11-24T23:19:23.215Z,83.48
2022-11-24T23:21:54.675Z,83.19
2022-11-24T23:24:24.409Z,86.25
2022-11-24T23:26:55.660Z,80.20
2022-11-24T23:29:29.947Z,83.92
2022-11-24T23:32:02.452Z,81.36
2022-11-24T23:34:33.239Z,84.51
2022-11-24T23:37:03.696Z,85.09
2022-11-24T23:39:33.876Z,85.36
2022-11-24T23:42:04.815Z,83.44
2022-11-24T23:44:37.838Z,82.95
2022-11-24T23:47:08.782Z,82.74
2022-11-24T23:49:38.489Z,83.44
2022-11-24T23:52:08.756Z,79.63
2022-11-24T23:54:40.400Z,84.21
2022-11-24T23:57:10.895Z,80.34
2022-11-24T23:59:43.319Z,80.75
